Waite Park, MN (56387)

5:06 AM CDT on June 02, 2015 (GMT -0500)
Quail Meadows | | Change Station
CLOSE
Current Station
Personal Weather Station
Location: St Cloud, MN
Elevation: 1039 ft
Nearby Weather Stations

Elev 1039 ft 45.58 °N, 94.22 °W | Updated 48 seconds ago

Clear
Clear
55.9 °F
Feels Like 55.9 °F
N
4.7
Wind Variable Wind from East

Today
High -- | Low -- °F
--% Chance of Precip.
Yesterday
High -- | Low -- °F
Precip. -- in
5:30 AM 8:59 PM
Full, 100% visible
Pressure 30.07 in
Visibility 10.0 miles
Clouds Clear
Dew Point 45 °F
Humidity 67%
Rainfall 0.00 in
Snow Depth Not available.
UV 0 out of 12
Pollen 8.00 out of 12
Air Quality Not available.
Flu Activity Sporadic
METAR KSTC 020953Z AUTO 14004KT 10SM CLR 12/06 A3004 RMK AO2 SLP181 T01220061

More Conditions Fewer Conditions

Pressure 30.07 in
Visibility 10.0 miles
Clouds Clear
Dew Point 45 °F
Humidity 67%
Rainfall 0.00 in
Snow Depth Not available.
UV 0 out of 12
Pollen 8.00 out of 12
Air Quality Not available.
Flu Activity Sporadic
METAR KSTC 020953Z AUTO 14004KT 10SM CLR 12/06 A3004 RMK AO2 SLP181 T01220061

More Conditions Fewer Conditions

10-Day Weather Forecast

Almanac

Astronomy

Jun. 02, 2015 Rise Set
Actual Time
Civil Twilight
Nautical Twilight
Astronomical Twilight
Moon
Length of Visible Light
Length of Day
Tomorrow will be .
, % of the Moon is Illuminated

Today's Extremes

State Highs State Lows

Community

WunderPhotos

Upload Photos

1,825,901 photos uploaded!

WunderBlogs® & News

Nearby

Air Quality

  Air Quality AQ Index Pollutant
Not available.

Snow Depth

Station Depth Elevation

Earthquake Activity

City Distance Mag. Time & Date
Minimum magnitude displayed is 2.5.

Coastal Water Temperatures

Place Temperature

Stations

Nearby Weather Stations

Station Location Temp. Windchill Dew Point Humidity Wind Precip. Elev Updated Type